createdAt,value
2018-03-07T00:00:37.660Z,971.76
2018-03-07T00:01:47.386Z,971.79
2018-03-07T00:02:57.422Z,971.72
2018-03-07T00:04:07.455Z,971.73
2018-03-07T00:05:17.455Z,971.76
2018-03-07T00:06:27.448Z,971.77
2018-03-07T00:07:37.447Z,971.78
2018-03-07T00:08:47.442Z,971.8
2018-03-07T00:09:57.166Z,971.78
2018-03-07T00:11:06.628Z,971.77
2018-03-07T00:12:16.356Z,971.76
2018-03-07T00:13:26.083Z,971.77
2018-03-07T00:14:36.074Z,971.74
2018-03-07T00:15:46.075Z,971.78
2018-03-07T00:16:55.804Z,971.76
2018-03-07T00:18:05.530Z,971.73
2018-03-07T00:19:15.534Z,971.73
2018-03-07T00:20:24.995Z,971.71
2018-03-07T00:21:34.995Z,971.73
2018-03-07T00:22:44.729Z,971.77
2018-03-07T00:23:54.719Z,971.76
2018-03-07T00:25:04.507Z,971.77
2018-03-07T00:26:14.506Z,971.74
2018-03-07T00:27:24.507Z,971.78
2018-03-07T00:28:34.550Z,971.78
2018-03-07T00:29:44.544Z,971.74
2018-03-07T00:30:53.469Z,971.77
2018-03-07T00:32:02.928Z,971.75
2018-03-07T00:33:12.384Z,971.78
2018-03-07T00:34:22.108Z,971.75
2018-03-07T00:35:32.114Z,971.76
2018-03-07T00:36:41.839Z,971.76
2018-03-07T00:37:51.559Z,971.82
2018-03-07T00:39:01.286Z,971.77
2018-03-07T00:40:11.013Z,971.76
2018-03-07T00:41:20.737Z,971.75
2018-03-07T00:42:30.200Z,971.72
2018-03-07T00:43:40.192Z,971.74
2018-03-07T00:44:49.921Z,971.73
2018-03-07T00:45:59.679Z,971.69
2018-03-07T00:47:09.410Z,971.72
2018-03-07T00:48:18.869Z,971.69
2018-03-07T00:49:28.871Z,971.68
2018-03-07T00:50:38.860Z,971.68
2018-03-07T00:51:48.850Z,971.63
2018-03-07T00:52:58.843Z,971.63
2018-03-07T00:54:08.571Z,971.6
2018-03-07T00:55:17.761Z,971.56
2018-03-07T00:56:27.500Z,971.54
2018-03-07T00:57:37.495Z,971.52
2018-03-07T00:58:47.485Z,971.48
2018-03-07T00:59:57.471Z,971.49
2018-03-07T01:01:07.468Z,971.45
2018-03-07T01:02:17.466Z,971.43
2018-03-07T01:03:27.464Z,971.43
2018-03-07T01:04:37.206Z,971.4
2018-03-07T01:05:46.925Z,971.39
2018-03-07T01:06:56.943Z,971.39
2018-03-07T01:08:07.007Z,971.37
2018-03-07T01:09:16.466Z,971.42
2018-03-07T01:10:26.193Z,971.44
2018-03-07T01:11:35.919Z,971.42
2018-03-07T01:12:45.643Z,971.4
2018-03-07T01:13:55.639Z,971.43
2018-03-07T01:15:05.367Z,971.42
2018-03-07T01:16:15.096Z,971.44
2018-03-07T01:17:24.824Z,971.44
2018-03-07T01:18:34.550Z,971.42
2018-03-07T01:19:44.554Z,971.42
2018-03-07T01:20:54.274Z,971.42
2018-03-07T01:22:03.728Z,971.44
2018-03-07T01:23:13.187Z,971.46
2018-03-07T01:24:22.114Z,971.43
2018-03-07T01:25:31.587Z,971.47
2018-03-07T01:26:41.589Z,971.49
2018-03-07T01:27:51.583Z,971.47
2018-03-07T01:29:01.307Z,971.49
2018-03-07T01:30:11.034Z,971.49
2018-03-07T01:31:21.044Z,971.43
2018-03-07T01:32:30.813Z,971.41
2018-03-07T01:33:40.542Z,971.42
2018-03-07T01:34:50.535Z,971.48
2018-03-07T01:35:59.732Z,971.43
2018-03-07T01:37:09.461Z,971.45
2018-03-07T01:38:19.451Z,971.46
2018-03-07T01:39:29.438Z,971.42
2018-03-07T01:40:39.438Z,971.43
2018-03-07T01:41:49.429Z,971.44
2018-03-07T01:42:59.155Z,971.4
2018-03-07T01:44:09.150Z,971.4
2018-03-07T01:45:18.874Z,971.43
2018-03-07T01:46:28.610Z,971.45
2018-03-07T01:47:38.607Z,971.41
2018-03-07T01:48:48.601Z,971.45
2018-03-07T01:49:58.326Z,971.4
2018-03-07T01:51:07.790Z,971.38
2018-03-07T01:52:17.799Z,971.37
2018-03-07T01:53:27.529Z,971.36
2018-03-07T01:54:37.265Z,971.4
2018-03-07T01:55:47.299Z,971.38
2018-03-07T01:56:57.028Z,971.34
2018-03-07T01:58:07.018Z,971.32
2018-03-07T01:59:17.011Z,971.32
2018-03-07T02:00:26.203Z,971.3
2018-03-07T02:01:35.661Z,971.32
2018-03-07T02:02:45.386Z,971.31
2018-03-07T02:03:54.847Z,971.25
2018-03-07T02:05:04.575Z,971.27
2018-03-07T02:06:14.303Z,971.25
2018-03-07T02:07:24.032Z,971.22
2018-03-07T02:08:34.029Z,971.24
2018-03-07T02:09:44.023Z,971.17
2018-03-07T02:10:53.795Z,971.18
2018-03-07T02:12:03.788Z,971.17
2018-03-07T02:13:13.514Z,971.18
2018-03-07T02:14:23.514Z,971.19
2018-03-07T02:15:32.968Z,971.18
2018-03-07T02:16:42.697Z,971.2
2018-03-07T02:17:52.425Z,971.17
2018-03-07T02:19:02.423Z,971.17
2018-03-07T02:20:12.153Z,971.16
2018-03-07T02:21:22.148Z,971.13
2018-03-07T02:22:32.140Z,971.17
2018-03-07T02:23:41.863Z,971.12
2018-03-07T02:24:51.586Z,971.1
2018-03-07T02:26:01.310Z,971.08
2018-03-07T02:27:10.510Z,971.13
2018-03-07T02:28:20.503Z,971.1
2018-03-07T02:29:30.496Z,971.12
2018-03-07T02:30:40.500Z,971.12
2018-03-07T02:31:49.702Z,971.12
2018-03-07T02:32:59.732Z,971.12
2018-03-07T02:34:08.925Z,971.1
2018-03-07T02:35:18.662Z,971.15
2018-03-07T02:36:28.648Z,971.15
2018-03-07T02:37:38.662Z,971.15
2018-03-07T02:38:48.387Z,971.12
2018-03-07T02:39:58.382Z,971.12
2018-03-07T02:41:07.578Z,971.13
2018-03-07T02:42:17.574Z,971.08
2018-03-07T02:43:27.597Z,971.14
2018-03-07T02:44:37.599Z,971.12
2018-03-07T02:45:47.329Z,971.13
2018-03-07T02:46:57.331Z,971.11
2018-03-07T02:48:07.363Z,971.14
2018-03-07T02:49:17.370Z,971.11
2018-03-07T02:50:26.824Z,971.11
2018-03-07T02:51:36.825Z,971.1
2018-03-07T02:52:46.833Z,971.07
2018-03-07T02:53:56.324Z,971.09
2018-03-07T02:55:05.503Z,971.11
2018-03-07T02:56:15.232Z,971.08
2018-03-07T02:57:25.240Z,971.06
2018-03-07T02:58:35.241Z,971.04
2018-03-07T02:59:44.985Z,971.05
2018-03-07T03:00:54.988Z,971.04
2018-03-07T03:02:04.453Z,971.07
2018-03-07T03:03:14.182Z,971.07
2018-03-07T03:04:23.917Z,971.07
2018-03-07T03:05:33.113Z,971.04
2018-03-07T03:06:43.109Z,971.1
2018-03-07T03:07:52.852Z,971.04
2018-03-07T03:09:02.851Z,971.06
2018-03-07T03:10:12.873Z,971.04
2018-03-07T03:11:22.327Z,971.03
2018-03-07T03:12:32.354Z,971.09
2018-03-07T03:13:42.083Z,971.07
2018-03-07T03:14:52.066Z,971.07
2018-03-07T03:16:01.795Z,971.06
2018-03-07T03:17:11.782Z,971.05
2018-03-07T03:18:21.773Z,971.12
2018-03-07T03:19:31.765Z,971.07
2018-03-07T03:20:41.762Z,971.08
2018-03-07T03:21:51.488Z,971.03
2018-03-07T03:23:01.474Z,971.04
2018-03-07T03:24:11.471Z,971.02
2018-03-07T03:25:21.461Z,971.01
2018-03-07T03:26:30.915Z,971.02
2018-03-07T03:27:40.373Z,971.01
2018-03-07T03:28:50.101Z,971.06
2018-03-07T03:30:00.098Z,971.05
2018-03-07T03:31:09.845Z,971.07
2018-03-07T03:32:19.854Z,971.07
2018-03-07T03:33:29.582Z,971.1
2018-03-07T03:34:39.579Z,971.08
2018-03-07T03:35:49.566Z,971.1
2018-03-07T03:36:59.291Z,971.15
2018-03-07T03:38:09.288Z,971.09
2018-03-07T03:39:19.387Z,971.14
2018-03-07T03:40:29.115Z,971.12
2018-03-07T03:41:38.849Z,971.12
2018-03-07T03:42:48.573Z,971.11
2018-03-07T03:43:58.566Z,971.15
2018-03-07T03:45:08.290Z,971.14
2018-03-07T03:46:18.283Z,971.16
2018-03-07T03:47:28.277Z,971.13
2018-03-07T03:48:37.735Z,971.08
2018-03-07T03:49:47.730Z,971.1
2018-03-07T03:50:57.724Z,971.07
2018-03-07T03:52:07.454Z,971.13
2018-03-07T03:53:17.449Z,971.08
2018-03-07T03:54:27.442Z,971.14
2018-03-07T03:55:37.431Z,971.16
2018-03-07T03:56:47.780Z,971.16
2018-03-07T03:57:57.239Z,971.17
2018-03-07T03:59:06.964Z,971.15
2018-03-07T04:04:27.257Z,971.18
2018-03-07T04:05:37.249Z,971.13
2018-03-07T04:06:47.236Z,971.14
2018-03-07T04:07:57.227Z,971.16
2018-03-07T04:09:06.952Z,971.15
2018-03-07T04:10:16.949Z,971.15
2018-03-07T04:11:26.940Z,971.15
2018-03-07T04:12:36.938Z,971.16
2018-03-07T04:13:46.934Z,971.2
2018-03-07T04:14:56.928Z,971.17
2018-03-07T04:16:06.921Z,971.2
2018-03-07T04:17:16.911Z,971.2
2018-03-07T04:18:26.903Z,971.23
2018-03-07T04:19:36.628Z,971.23
2018-03-07T04:20:46.614Z,971.27
2018-03-07T04:21:56.607Z,971.26
2018-03-07T04:23:06.334Z,971.26
2018-03-07T04:24:16.325Z,971.29
2018-03-07T04:25:26.402Z,971.25
2018-03-07T04:26:36.559Z,971.28
2018-03-07T04:27:46.020Z,971.25
2018-03-07T04:28:55.750Z,971.24
2018-03-07T04:30:05.476Z,971.22
2018-03-07T04:31:15.205Z,971.23
2018-03-07T04:32:25.255Z,971.21
2018-03-07T04:33:34.979Z,971.26
2018-03-07T04:34:44.968Z,971.27
2018-03-07T04:35:54.969Z,971.28
2018-03-07T04:37:04.698Z,971.26
2018-03-07T04:38:14.703Z,971.25
2018-03-07T04:39:24.696Z,971.26
2018-03-07T04:40:34.683Z,971.23
2018-03-07T04:41:44.800Z,971.21
2018-03-07T04:42:54.532Z,971.23
2018-03-07T04:44:04.521Z,971.21
2018-03-07T04:45:14.517Z,971.25
2018-03-07T04:46:24.504Z,971.22
2018-03-07T04:47:34.496Z,971.2
2018-03-07T04:48:44.496Z,971.21
2018-03-07T04:49:54.492Z,971.22
2018-03-07T04:51:04.485Z,971.18
2018-03-07T04:52:14.519Z,971.22
2018-03-07T04:53:24.534Z,971.22
2018-03-07T04:54:34.264Z,971.23
2018-03-07T04:55:43.991Z,971.23
2018-03-07T04:56:53.983Z,971.25
2018-03-07T04:58:03.978Z,971.2
2018-03-07T04:59:13.967Z,971.21
2018-03-07T05:00:23.957Z,971.18
2018-03-07T05:01:33.943Z,971.18
2018-03-07T05:02:44.062Z,971.17
2018-03-07T05:03:53.916Z,971.21
2018-03-07T05:05:03.384Z,971.21
2018-03-07T05:06:13.150Z,971.18
2018-03-07T05:07:22.878Z,971.2
2018-03-07T05:08:32.604Z,971.18
2018-03-07T05:09:42.595Z,971.19
2018-03-07T05:10:52.328Z,971.14
2018-03-07T05:12:02.322Z,971.15
2018-03-07T05:13:12.067Z,971.12
2018-03-07T05:14:21.521Z,971.15
2018-03-07T05:15:31.260Z,971.16
2018-03-07T05:16:41.248Z,971.15
2018-03-07T05:17:51.243Z,971.17
2018-03-07T05:19:00.966Z,971.17
2018-03-07T05:20:10.957Z,971.14
2018-03-07T05:21:20.688Z,971.12
2018-03-07T05:22:30.424Z,971.12
2018-03-07T05:23:40.415Z,971.13
2018-03-07T05:24:50.146Z,971.13
2018-03-07T05:26:00.146Z,971.12
2018-03-07T05:27:10.140Z,971.07
2018-03-07T05:28:19.597Z,971.11
2018-03-07T05:29:29.600Z,971.14
2018-03-07T05:30:39.322Z,971.11
2018-03-07T05:31:49.316Z,971.11
2018-03-07T05:32:59.306Z,971.07
2018-03-07T05:34:09.347Z,971.09
2018-03-07T05:35:19.424Z,971.05
2018-03-07T05:36:29.200Z,971.07
2018-03-07T05:37:38.930Z,971.04
2018-03-07T05:38:48.700Z,971.07
2018-03-07T05:39:58.746Z,971.03
2018-03-07T05:41:08.473Z,971.04
2018-03-07T05:42:18.468Z,971.02
2018-03-07T05:43:28.476Z,970.98
2018-03-07T05:44:38.197Z,970.99
2018-03-07T05:45:47.922Z,970.95
2018-03-07T05:46:57.649Z,970.94
2018-03-07T05:48:07.377Z,970.94
2018-03-07T05:49:17.104Z,970.97
2018-03-07T05:50:26.830Z,970.93
2018-03-07T05:51:36.560Z,970.94
2018-03-07T05:52:46.019Z,970.91
2018-03-07T05:53:56.014Z,970.89
2018-03-07T05:55:05.851Z,970.84
2018-03-07T05:56:15.573Z,970.87
2018-03-07T05:57:25.299Z,970.84
2018-03-07T05:58:35.025Z,970.8
2018-03-07T05:59:45.015Z,970.74
2018-03-07T06:00:54.744Z,970.69
2018-03-07T06:02:04.751Z,970.65
2018-03-07T06:03:14.473Z,970.53
2018-03-07T06:04:24.465Z,970.48
2018-03-07T06:05:33.924Z,970.42
2018-03-07T06:06:43.696Z,970.42
2018-03-07T06:07:53.693Z,970.44
2018-03-07T06:09:03.691Z,970.47
2018-03-07T06:10:13.688Z,970.52
2018-03-07T06:11:23.681Z,970.63
2018-03-07T06:12:33.672Z,970.68
2018-03-07T06:13:43.664Z,970.69
2018-03-07T06:14:53.660Z,970.71
2018-03-07T06:16:03.385Z,970.67
2018-03-07T06:17:12.577Z,970.69
2018-03-07T06:18:22.033Z,970.64
2018-03-07T06:19:32.021Z,970.7
2018-03-07T06:20:42.020Z,970.7
2018-03-07T06:21:52.025Z,970.71
2018-03-07T06:23:02.137Z,970.74
2018-03-07T06:24:11.872Z,970.82
2018-03-07T06:25:21.866Z,970.85
2018-03-07T06:26:31.857Z,970.84
2018-03-07T06:27:41.847Z,970.9
2018-03-07T06:28:51.579Z,970.87
2018-03-07T06:30:01.311Z,970.91
2018-03-07T06:31:10.772Z,970.97
2018-03-07T06:32:20.499Z,970.94
2018-03-07T06:33:30.226Z,970.98
2018-03-07T06:34:40.226Z,971
2018-03-07T06:35:50.003Z,971
2018-03-07T06:36:59.996Z,971.01
2018-03-07T06:38:09.987Z,971.04
2018-03-07T06:39:19.721Z,970.96
2018-03-07T06:40:29.715Z,970.98
2018-03-07T06:41:39.703Z,971.01
2018-03-07T06:42:49.694Z,971
2018-03-07T06:43:59.823Z,971.01
2018-03-07T06:45:09.859Z,971.07
2018-03-07T06:46:19.855Z,971.07
2018-03-07T06:47:29.673Z,971.04
2018-03-07T06:48:39.675Z,971.07
2018-03-07T06:49:49.662Z,971.04
2018-03-07T06:50:59.658Z,971.07
2018-03-07T06:52:09.396Z,971.12
2018-03-07T06:53:19.390Z,971.09
2018-03-07T06:54:29.129Z,971.09
2018-03-07T06:55:39.127Z,971.13
2018-03-07T06:56:49.121Z,971.13
2018-03-07T06:57:59.118Z,971.19
2018-03-07T06:59:09.110Z,971.23
2018-03-07T07:00:18.576Z,971.3
2018-03-07T07:01:28.574Z,971.28
2018-03-07T07:02:38.564Z,971.26
2018-03-07T07:03:48.556Z,971.3
2018-03-07T07:04:58.548Z,971.27
2018-03-07T07:06:08.008Z,971.26
2018-03-07T07:07:17.901Z,971.29
2018-03-07T07:08:27.902Z,971.29
2018-03-07T07:09:37.644Z,971.29
2018-03-07T07:10:47.636Z,971.3
2018-03-07T07:11:57.627Z,971.31
2018-03-07T07:13:07.625Z,971.37
2018-03-07T07:14:17.384Z,971.43
2018-03-07T07:15:27.112Z,971.42
2018-03-07T07:16:37.119Z,971.43
2018-03-07T07:17:47.124Z,971.39
2018-03-07T07:18:56.849Z,971.39
2018-03-07T07:20:06.577Z,971.42
2018-03-07T07:21:16.580Z,971.39
2018-03-07T07:22:26.305Z,971.39
2018-03-07T07:23:36.301Z,971.36
2018-03-07T07:24:46.297Z,971.36
2018-03-07T07:25:56.295Z,971.38
2018-03-07T07:27:06.032Z,971.47
2018-03-07T07:28:16.047Z,971.5
2018-03-07T07:29:26.042Z,971.47
2018-03-07T07:30:35.500Z,971.43
2018-03-07T07:31:45.238Z,971.43
2018-03-07T07:32:55.239Z,971.49
2018-03-07T07:34:05.259Z,971.48
2018-03-07T07:35:15.257Z,971.5
2018-03-07T07:36:24.988Z,971.54
2018-03-07T07:37:35.029Z,971.54
2018-03-07T07:38:44.757Z,971.48
2018-03-07T07:39:54.755Z,971.52
2018-03-07T07:41:04.483Z,971.56
2018-03-07T07:42:14.480Z,971.56
2018-03-07T07:43:23.946Z,971.49
2018-03-07T07:44:34.129Z,971.5
2018-03-07T07:45:43.856Z,971.47
2018-03-07T07:46:53.855Z,971.49
2018-03-07T07:48:03.581Z,971.51
2018-03-07T07:49:13.585Z,971.48
2018-03-07T07:50:23.592Z,971.52
2018-03-07T07:51:33.324Z,971.52
2018-03-07T07:52:43.314Z,971.55
2018-03-07T07:53:53.042Z,971.54
2018-03-07T07:55:02.769Z,971.58
2018-03-07T07:56:12.499Z,971.58
2018-03-07T07:57:22.230Z,971.56
2018-03-07T07:58:32.238Z,971.61
2018-03-07T07:59:42.242Z,971.62
2018-03-07T08:00:52.241Z,971.6
2018-03-07T08:02:02.333Z,971.63
2018-03-07T08:03:12.065Z,971.64
2018-03-07T08:04:21.829Z,971.67
2018-03-07T08:05:31.558Z,971.65
2018-03-07T08:06:41.556Z,971.65
2018-03-07T08:07:51.288Z,971.66
2018-03-07T08:09:01.293Z,971.67
2018-03-07T08:10:11.024Z,971.71
2018-03-07T08:11:21.024Z,971.71
2018-03-07T08:12:30.484Z,971.7
2018-03-07T08:13:40.489Z,971.71
2018-03-07T08:14:49.950Z,971.72
2018-03-07T08:15:59.965Z,971.69
2018-03-07T08:17:09.964Z,971.7
2018-03-07T08:18:19.997Z,971.69
2018-03-07T08:19:29.880Z,971.67
2018-03-07T08:20:39.877Z,971.67
2018-03-07T08:21:49.876Z,971.69
2018-03-07T08:22:59.880Z,971.68
2018-03-07T08:24:09.880Z,971.64
2018-03-07T08:25:19.884Z,971.61
2018-03-07T08:26:29.882Z,971.59
2018-03-07T08:27:39.635Z,971.6
2018-03-07T08:28:49.705Z,971.6
2018-03-07T08:29:59.720Z,971.57
2018-03-07T08:31:09.192Z,971.63
2018-03-07T08:32:19.186Z,971.62
2018-03-07T08:33:29.184Z,971.64
2018-03-07T08:34:38.918Z,971.64
2018-03-07T08:35:48.910Z,971.7
2018-03-07T08:36:58.903Z,971.69
2018-03-07T08:38:08.097Z,971.7
2018-03-07T08:39:17.825Z,971.68
2018-03-07T08:40:27.563Z,971.7
2018-03-07T08:41:37.352Z,971.75
2018-03-07T08:42:47.082Z,971.81
2018-03-07T08:43:57.072Z,971.88
2018-03-07T08:45:07.074Z,971.87
2018-03-07T08:46:17.066Z,971.9
2018-03-07T08:47:26.841Z,971.89
2018-03-07T08:48:36.573Z,971.84
2018-03-07T08:49:46.036Z,971.85
2018-03-07T08:50:55.762Z,971.83
2018-03-07T08:52:05.763Z,971.85
2018-03-07T08:53:15.770Z,971.84
2018-03-07T08:54:25.507Z,971.85
2018-03-07T08:55:35.514Z,971.86
2018-03-07T08:56:45.029Z,971.87
2018-03-07T08:57:54.496Z,971.88
2018-03-07T08:59:04.228Z,971.91
2018-03-07T09:00:13.967Z,971.89
2018-03-07T09:01:23.965Z,971.94
2018-03-07T09:02:33.784Z,971.94
2018-03-07T09:03:43.785Z,971.97
2018-03-07T09:04:53.514Z,971.94
2018-03-07T09:06:02.985Z,971.91
2018-03-07T09:07:12.717Z,971.9
2018-03-07T09:08:22.723Z,971.91
2018-03-07T09:09:32.721Z,971.9
2018-03-07T09:10:42.725Z,971.93
2018-03-07T09:11:52.464Z,971.92
2018-03-07T09:13:02.199Z,971.87
2018-03-07T09:14:11.931Z,971.86
2018-03-07T09:15:21.935Z,971.85
2018-03-07T09:16:32.046Z,971.83
2018-03-07T09:17:42.042Z,971.78
2018-03-07T09:18:52.039Z,971.78
2018-03-07T09:20:02.045Z,971.86
2018-03-07T09:21:12.047Z,971.9
2018-03-07T09:22:22.046Z,971.91
2018-03-07T09:23:31.785Z,971.92
2018-03-07T09:24:41.789Z,971.91
2018-03-07T09:25:51.792Z,971.94
2018-03-07T09:27:01.523Z,971.98
2018-03-07T09:28:11.305Z,971.95
2018-03-07T09:29:21.035Z,972
2018-03-07T09:30:30.756Z,972
2018-03-07T09:31:40.758Z,971.98
2018-03-07T09:32:50.754Z,972
2018-03-07T09:34:00.488Z,971.99
2018-03-07T09:35:10.489Z,971.98
2018-03-07T09:36:20.487Z,972.03
2018-03-07T09:37:30.216Z,972.06
2018-03-07T09:38:39.676Z,972.03
2018-03-07T09:39:49.408Z,972.03
2018-03-07T09:40:59.405Z,972
2018-03-07T09:42:09.399Z,972.01
2018-03-07T09:43:19.161Z,972.02
2018-03-07T09:44:29.183Z,972.03
2018-03-07T09:45:38.922Z,972.02
2018-03-07T09:46:48.662Z,972.09
2018-03-07T09:47:58.657Z,972.09
2018-03-07T09:49:08.390Z,972.1
2018-03-07T09:50:18.393Z,972.13
2018-03-07T09:51:28.143Z,972.12
2018-03-07T09:52:38.138Z,972.12
2018-03-07T09:53:48.138Z,972.12
2018-03-07T09:54:58.135Z,972.13
2018-03-07T09:56:07.903Z,972.12
2018-03-07T09:57:18.643Z,972.11
2018-03-07T09:58:27.838Z,972.07
2018-03-07T09:59:37.308Z,972.09
2018-03-07T10:00:47.037Z,972.14
2018-03-07T10:01:57.045Z,972.16
2018-03-07T10:03:07.307Z,972.15
2018-03-07T10:04:17.323Z,972.18
2018-03-07T10:05:26.801Z,972.13
2018-03-07T10:06:36.799Z,972.12
2018-03-07T10:07:46.266Z,972.12
2018-03-07T10:08:56.264Z,972.15
2018-03-07T10:10:05.999Z,972.15
2018-03-07T10:11:15.750Z,972.15
2018-03-07T10:12:25.751Z,972.15
2018-03-07T10:13:35.482Z,972.17
2018-03-07T10:14:45.481Z,972.2
2018-03-07T10:15:55.214Z,972.25
2018-03-07T10:17:04.416Z,972.25
2018-03-07T10:18:14.423Z,972.26
2018-03-07T10:19:24.434Z,972.25
2018-03-07T10:20:34.433Z,972.21
2018-03-07T10:21:44.759Z,972.25
2018-03-07T10:22:54.553Z,972.21
2018-03-07T10:24:04.081Z,972.17
2018-03-07T10:25:13.816Z,972.15
2018-03-07T10:26:23.822Z,972.16
2018-03-07T10:27:33.824Z,972.17
2018-03-07T10:28:43.833Z,972.21
2018-03-07T10:29:53.830Z,972.12
2018-03-07T10:31:03.561Z,972.1
2018-03-07T10:32:13.294Z,972.09
2018-03-07T10:33:23.292Z,972.09
2018-03-07T10:34:33.024Z,972.09
2018-03-07T10:35:42.756Z,972.04
2018-03-07T10:36:52.752Z,972.08
2018-03-07T10:38:02.222Z,972.08
2018-03-07T10:39:12.157Z,972.08
2018-03-07T10:40:22.164Z,972.09
2018-03-07T10:41:31.894Z,972.04
2018-03-07T10:42:41.942Z,972.07
2018-03-07T10:43:51.411Z,972.09
2018-03-07T10:45:01.147Z,972.07
2018-03-07T10:46:10.876Z,972.05
2018-03-07T10:47:20.879Z,972.06
2018-03-07T10:48:30.609Z,972.03
2018-03-07T10:49:40.335Z,972.02
2018-03-07T10:50:49.812Z,971.99
2018-03-07T10:51:59.274Z,972.05
2018-03-07T10:53:09.019Z,972.03
2018-03-07T10:54:19.024Z,972.07
2018-03-07T10:55:29.028Z,972.03
2018-03-07T10:56:38.756Z,971.99
2018-03-07T10:57:48.489Z,972.05
2018-03-07T10:58:58.230Z,972.03
2018-03-07T11:00:07.969Z,972.03
2018-03-07T11:01:17.990Z,972.08
2018-03-07T11:02:27.729Z,972.07
2018-03-07T11:03:37.870Z,972.08
2018-03-07T11:04:47.601Z,972.06
2018-03-07T11:05:57.338Z,972.06
2018-03-07T11:07:07.344Z,972.07
2018-03-07T11:08:17.076Z,972.08
2018-03-07T11:09:27.129Z,972.09
2018-03-07T11:10:37.131Z,972.12
2018-03-07T11:11:47.136Z,972.14
2018-03-07T11:12:56.864Z,972.14
2018-03-07T11:14:06.620Z,972.12
2018-03-07T11:15:16.354Z,972.15
2018-03-07T11:16:26.364Z,972.16
2018-03-07T11:17:35.834Z,972.16
2018-03-07T11:18:45.305Z,972.18
2018-03-07T11:19:55.133Z,972.16
2018-03-07T11:21:04.602Z,972.14
2018-03-07T11:22:14.636Z,972.16
2018-03-07T11:23:24.372Z,972.11
2018-03-07T11:24:34.226Z,972.14
2018-03-07T11:25:44.255Z,972.12
2018-03-07T11:26:54.255Z,972.12
2018-03-07T11:28:03.992Z,972.13
2018-03-07T11:29:13.239Z,972.11
2018-03-07T11:30:22.967Z,972.1
2018-03-07T11:31:32.437Z,972.12
2018-03-07T11:32:42.184Z,972.12
2018-03-07T11:33:51.917Z,972.13
2018-03-07T11:35:01.915Z,972.04
2018-03-07T11:36:11.386Z,972.05
2018-03-07T11:37:21.125Z,972.06
2018-03-07T11:38:30.866Z,972.13
2018-03-07T11:39:40.610Z,972.09
2018-03-07T11:40:50.695Z,972.07
2018-03-07T11:42:00.434Z,972.07
2018-03-07T11:43:10.165Z,972.07
2018-03-07T11:44:20.162Z,972.03
2018-03-07T11:45:29.901Z,972.06
2018-03-07T11:46:39.902Z,972.03
2018-03-07T11:47:49.632Z,972.05
2018-03-07T11:48:59.366Z,972.04
2018-03-07T11:50:09.373Z,972.01
2018-03-07T11:51:19.105Z,972.02
2018-03-07T11:52:29.111Z,972.03
2018-03-07T11:53:39.113Z,972.05
2018-03-07T11:54:49.114Z,972.08
2018-03-07T11:55:59.109Z,972.04
2018-03-07T11:57:09.221Z,972.06
2018-03-07T11:58:19.228Z,972.04
2018-03-07T11:59:28.964Z,972.03
2018-03-07T12:00:38.974Z,972.01
2018-03-07T12:01:48.714Z,972
2018-03-07T12:02:58.443Z,972.04
2018-03-07T12:04:08.448Z,972.01
2018-03-07T12:05:18.445Z,971.99
2018-03-07T12:06:28.194Z,971.97
2018-03-07T12:07:37.928Z,971.96
2018-03-07T12:08:47.656Z,971.96
2018-03-07T12:09:57.403Z,972
2018-03-07T12:11:07.135Z,971.95
2018-03-07T12:12:17.142Z,971.92
2018-03-07T12:13:26.609Z,971.96
2018-03-07T12:14:36.604Z,971.96
2018-03-07T12:15:46.611Z,971.98
2018-03-07T12:16:56.351Z,972.07
2018-03-07T12:18:05.817Z,972.04
2018-03-07T12:19:14.749Z,972.09
2018-03-07T12:20:24.753Z,972.04
2018-03-07T12:21:34.228Z,972.05
2018-03-07T12:22:44.232Z,972.01
2018-03-07T12:23:54.237Z,972.07
2018-03-07T12:25:04.239Z,972.02
2018-03-07T12:26:14.237Z,972.05
2018-03-07T12:27:24.237Z,972.04
2018-03-07T12:28:34.060Z,972.02
2018-03-07T12:29:43.797Z,971.96
2018-03-07T12:30:53.865Z,971.93
2018-03-07T12:32:03.874Z,971.98
2018-03-07T12:33:13.878Z,971.96
2018-03-07T12:34:23.608Z,971.94
2018-03-07T12:35:32.539Z,971.96
2018-03-07T12:36:42.537Z,971.89
2018-03-07T12:37:52.530Z,971.89
2018-03-07T12:39:01.996Z,971.87
2018-03-07T12:40:11.997Z,971.86
2018-03-07T12:41:22.001Z,971.88
2018-03-07T12:42:31.743Z,971.9
2018-03-07T12:43:41.752Z,971.9
2018-03-07T12:44:51.495Z,971.85
2018-03-07T12:46:00.968Z,971.85
2018-03-07T12:47:10.695Z,971.82
2018-03-07T12:48:20.426Z,971.83
2018-03-07T12:49:30.431Z,971.88
2018-03-07T12:50:39.903Z,971.89
2018-03-07T12:51:49.637Z,971.87
2018-03-07T12:52:59.365Z,971.89
2018-03-07T12:54:09.101Z,971.92
2018-03-07T12:55:19.098Z,971.87
2018-03-07T12:56:29.093Z,971.82
2018-03-07T12:57:39.094Z,971.8
2018-03-07T12:58:49.092Z,971.8
2018-03-07T12:59:58.824Z,971.83
2018-03-07T13:01:08.568Z,971.87
2018-03-07T13:02:18.576Z,971.93
2018-03-07T13:03:28.578Z,971.88
2018-03-07T13:04:38.315Z,971.86
2018-03-07T13:05:48.321Z,971.82
2018-03-07T13:06:58.320Z,971.8
2018-03-07T13:08:08.326Z,971.81
2018-03-07T13:09:18.066Z,971.81
2018-03-07T13:10:27.532Z,971.81
2018-03-07T13:11:37.532Z,971.79
2018-03-07T13:12:47.265Z,971.78
2018-03-07T13:13:57.304Z,971.78
2018-03-07T13:15:07.300Z,971.75
2018-03-07T13:16:17.306Z,971.78
2018-03-07T13:17:27.080Z,971.71
2018-03-07T13:18:37.073Z,971.69
2018-03-07T13:19:46.824Z,971.73
2018-03-07T13:20:56.561Z,971.73
2018-03-07T13:22:06.299Z,971.75
2018-03-07T13:23:16.036Z,971.75
2018-03-07T13:24:26.040Z,971.74
2018-03-07T13:25:35.785Z,971.76
2018-03-07T13:26:45.252Z,971.76
2018-03-07T13:27:54.985Z,971.77
2018-03-07T13:29:04.986Z,971.72
2018-03-07T13:30:15.040Z,971.75
2018-03-07T13:31:25.092Z,971.72
2018-03-07T13:32:34.556Z,971.68
2018-03-07T13:33:44.561Z,971.67
2018-03-07T13:34:54.571Z,971.66
2018-03-07T13:36:04.568Z,971.64
2018-03-07T13:37:14.299Z,971.63
2018-03-07T13:38:24.025Z,971.57
2018-03-07T13:39:34.027Z,971.61
2018-03-07T13:40:44.024Z,971.65
2018-03-07T13:41:53.751Z,971.66
2018-03-07T13:43:03.748Z,971.66
2018-03-07T13:44:13.477Z,971.66
2018-03-07T13:45:23.478Z,971.66
2018-03-07T13:46:33.205Z,971.68
2018-03-07T13:47:43.206Z,971.64
2018-03-07T13:48:52.944Z,971.64
2018-03-07T13:50:02.143Z,971.61
2018-03-07T13:51:11.885Z,971.61
2018-03-07T13:52:21.617Z,971.58
2018-03-07T13:53:31.353Z,971.59
2018-03-07T13:54:41.082Z,971.58
2018-03-07T13:55:51.131Z,971.6
2018-03-07T13:57:00.858Z,971.53
2018-03-07T13:58:10.601Z,971.55
2018-03-07T13:59:20.065Z,971.59
2018-03-07T14:00:30.071Z,971.59
2018-03-07T14:01:40.077Z,971.56
2018-03-07T14:02:50.069Z,971.6
2018-03-07T14:04:00.071Z,971.64
2018-03-07T14:05:09.536Z,971.61
2018-03-07T14:06:19.308Z,971.62
2018-03-07T14:07:29.311Z,971.62
2018-03-07T14:08:39.310Z,971.63
2018-03-07T14:09:49.313Z,971.61
2018-03-07T14:10:59.332Z,971.63
2018-03-07T14:12:09.071Z,971.64
2018-03-07T14:13:19.071Z,971.62
2018-03-07T14:14:28.809Z,971.54
2018-03-07T14:15:38.845Z,971.63
2018-03-07T14:16:48.847Z,971.56
2018-03-07T14:17:58.843Z,971.56
2018-03-07T14:19:08.041Z,971.5
2018-03-07T14:20:17.774Z,971.53
2018-03-07T14:21:27.506Z,971.52
2018-03-07T14:22:37.522Z,971.52
2018-03-07T14:23:47.574Z,971.51
2018-03-07T14:24:57.051Z,971.46
2018-03-07T14:26:06.834Z,971.45
2018-03-07T14:27:16.577Z,971.46
2018-03-07T14:28:26.625Z,971.52
2018-03-07T14:29:36.092Z,971.59
2018-03-07T14:30:45.823Z,971.54
2018-03-07T14:31:55.568Z,971.55
2018-03-07T14:33:05.317Z,971.56
2018-03-07T14:34:14.783Z,971.56
2018-03-07T14:35:24.839Z,971.58
2018-03-07T14:36:34.521Z,971.6
2018-03-07T14:37:44.626Z,971.56
2018-03-07T14:38:54.354Z,971.57